createdAt,value
2018-04-23T00:05:36.514Z,16.43
2018-04-23T00:08:02.503Z,7.97
2018-04-23T00:10:29.195Z,17.17
2018-04-23T00:12:55.186Z,11.90
2018-04-23T00:15:21.899Z,11.53
2018-04-23T00:17:47.855Z,9.20
2018-04-23T00:20:14.341Z,9.67
2018-04-23T00:22:40.383Z,15.60
2018-04-23T00:25:06.334Z,14.37
2018-04-23T00:27:32.318Z,10.83
2018-04-23T00:29:58.272Z,11.13
2018-04-23T00:32:25.017Z,10.20
2018-04-23T00:34:50.975Z,9.93
2018-04-23T00:37:16.930Z,10.03
2018-04-23T00:39:42.907Z,12.70
2018-04-23T00:42:08.951Z,12.47
2018-04-23T00:44:35.652Z,12.33
2018-04-23T00:47:01.622Z,10.30
2018-04-23T00:49:28.267Z,11.37
2018-04-23T00:51:54.272Z,10.10
2018-04-23T00:54:20.228Z,9.10
2018-04-23T00:56:46.249Z,14.13
2018-04-23T00:59:12.222Z,11.53
2018-04-23T01:01:38.162Z,8.17
2018-04-23T01:04:04.159Z,12.47
2018-04-23T01:06:30.113Z,9.17
2018-04-23T01:08:56.063Z,11.03
2018-04-23T01:11:23.010Z,13.30
2018-04-23T01:13:48.958Z,13.13
2018-04-23T01:16:14.955Z,10.20
2018-04-23T01:18:40.966Z,12.23
2018-04-23T01:21:06.923Z,12.10
2018-04-23T01:23:32.877Z,9.47
2018-04-23T01:25:58.858Z,11.47
2018-04-23T01:28:25.542Z,10.83
2018-04-23T01:30:51.498Z,14.53
2018-04-23T01:33:17.472Z,10.80
2018-04-23T01:35:44.175Z,10.67
2018-04-23T01:38:10.164Z,13.40
2018-04-23T01:40:37.590Z,10.83
2018-04-23T01:43:03.633Z,14.10
2018-04-23T01:45:29.587Z,10.77
2018-04-23T01:47:55.570Z,12.57
2018-04-23T01:50:21.517Z,9.57
2018-04-23T01:52:47.481Z,10.67
2018-04-23T01:55:13.493Z,11.10
2018-04-23T01:57:39.465Z,11.77
2018-04-23T02:00:06.171Z,13.33
2018-04-23T02:02:32.174Z,11.93
2018-04-23T02:04:58.125Z,10.60
2018-04-23T02:07:24.086Z,15.40
2018-04-23T02:09:50.066Z,15.20
2018-04-23T02:12:16.878Z,15.73
2018-04-23T02:14:42.867Z,13.30
2018-04-23T02:17:08.840Z,13.70
2018-04-23T02:19:34.793Z,13.40
2018-04-23T02:22:00.743Z,11.30
2018-04-23T02:24:26.733Z,12.70
2018-04-23T02:26:52.690Z,16.03
2018-04-23T02:29:18.641Z,9.60
2018-04-23T02:31:44.651Z,9.60
2018-04-23T02:34:10.619Z,17.23
2018-04-23T02:36:36.578Z,10.03
2018-04-23T02:39:03.314Z,12.27
2018-04-23T02:41:29.266Z,8.63
2018-04-23T02:43:56.022Z,11.03
2018-04-23T02:46:22.754Z,9.57
2018-04-23T02:48:48.711Z,7.47
2018-04-23T02:51:15.433Z,10.80
2018-04-23T02:53:41.501Z,10.73
2018-04-23T02:56:07.514Z,11.60
2018-04-23T02:58:33.462Z,13.00
2018-04-23T03:01:00.201Z,13.27
2018-04-23T03:03:26.151Z,16.67
2018-04-23T03:05:52.851Z,11.63
2018-04-23T03:08:18.849Z,9.80
2018-04-23T03:10:45.617Z,11.43
2018-04-23T03:13:11.615Z,16.60
2018-04-23T03:15:37.616Z,15.20
2018-04-23T03:18:03.561Z,20.10
2018-04-23T03:20:29.506Z,16.07
2018-04-23T03:22:55.466Z,9.93
2018-04-23T03:25:22.164Z,18.67
2018-04-23T03:27:48.119Z,14.63
2018-04-23T03:30:14.133Z,13.10
2018-04-23T03:32:40.101Z,8.83
2018-04-23T03:35:06.051Z,13.07
2018-04-23T03:37:32.881Z,17.00
2018-04-23T03:39:58.849Z,16.33
2018-04-23T03:42:25.550Z,12.30
2018-04-23T03:44:51.665Z,12.63
2018-04-23T03:47:17.620Z,9.50
2018-04-23T03:49:43.579Z,12.03
2018-04-23T03:52:09.546Z,9.13
2018-04-23T03:54:36.246Z,12.90
2018-04-23T03:57:02.197Z,17.47
2018-04-23T03:59:28.167Z,12.70
2018-04-23T04:01:54.854Z,13.37
2018-04-23T04:04:20.818Z,13.40
2018-04-23T04:06:46.979Z,16.03
2018-04-23T04:09:12.973Z,12.13
2018-04-23T04:11:38.926Z,11.93
2018-04-23T04:14:17.461Z,13.03
2018-04-23T04:16:53.667Z,13.70
2018-04-23T04:19:19.651Z,14.33
2018-04-23T04:21:45.611Z,13.53
2018-04-23T04:24:11.584Z,9.80
2018-04-23T04:26:38.317Z,13.97
2018-04-23T04:29:05.193Z,14.23
2018-04-23T04:31:31.878Z,14.93
2018-04-23T04:33:57.837Z,19.07
2018-04-23T04:36:23.791Z,14.27
2018-04-23T04:38:50.478Z,16.50
2018-04-23T04:41:16.563Z,13.00
2018-04-23T04:43:42.542Z,15.57
2018-04-23T04:46:09.372Z,12.07
2018-04-23T04:48:35.433Z,11.87
2018-04-23T04:51:02.200Z,16.13
2018-04-23T04:53:28.210Z,20.57
2018-04-23T04:55:55.091Z,11.40
2018-04-23T04:58:21.247Z,16.53
2018-04-23T05:00:47.331Z,14.13
2018-04-23T05:03:13.571Z,12.80
2018-04-23T05:05:41.230Z,14.50
2018-04-23T05:08:07.254Z,14.93
2018-04-23T05:10:33.327Z,9.80
2018-04-23T05:12:59.546Z,10.23
2018-04-23T05:15:25.490Z,12.53
2018-04-23T05:17:51.524Z,20.57
2018-04-23T05:20:17.486Z,12.27
2018-04-23T05:22:44.254Z,16.07
2018-04-23T05:25:10.243Z,15.43
2018-04-23T05:27:36.197Z,13.63
2018-04-23T05:30:02.245Z,17.23
2018-04-23T05:32:28.163Z,16.07
2018-04-23T05:34:54.105Z,20.53
2018-04-23T05:37:20.071Z,12.67
2018-04-23T05:39:46.114Z,16.27
2018-04-23T05:42:12.104Z,14.33
2018-04-23T05:44:38.273Z,14.77
2018-04-23T05:47:04.238Z,11.03
2018-04-23T05:49:30.181Z,14.83
2018-04-23T05:51:56.138Z,12.43
2018-04-23T05:54:22.112Z,18.37
2018-04-23T05:56:48.801Z,12.63
2018-04-23T05:59:14.778Z,15.07
2018-04-23T06:01:40.783Z,13.27
2018-04-23T06:04:06.739Z,14.70
2018-04-23T06:06:32.685Z,12.40
2018-04-23T06:08:58.638Z,13.13
2018-04-23T06:11:25.347Z,15.43
2018-04-23T06:13:51.306Z,15.20
2018-04-23T06:16:17.337Z,14.50
2018-04-23T06:18:43.494Z,12.43
2018-04-23T06:21:10.851Z,15.47
2018-04-23T06:23:36.969Z,15.50
2018-04-23T06:26:02.931Z,19.50
2018-04-23T06:28:29.622Z,15.13
2018-04-23T06:30:55.915Z,13.63
2018-04-23T06:33:21.883Z,16.73
2018-04-23T06:35:47.845Z,11.10
2018-04-23T06:38:13.855Z,13.53
2018-04-23T06:40:39.819Z,16.23
2018-04-23T06:43:05.778Z,14.90
2018-04-23T06:45:32.105Z,17.83
2018-04-23T06:47:58.061Z,11.30
2018-04-23T06:50:24.006Z,15.37
2018-04-23T06:52:51.049Z,16.17
2018-04-23T06:55:17.006Z,21.17
2018-04-23T06:57:43.054Z,14.73
2018-04-23T07:00:09.766Z,11.50
2018-04-23T07:02:35.713Z,10.03
2018-04-23T07:05:01.715Z,13.97
2018-04-23T07:07:28.667Z,15.27
2018-04-23T07:09:54.609Z,13.47
2018-04-23T07:12:20.570Z,19.47
2018-04-23T07:14:46.755Z,13.87
2018-04-23T07:17:12.799Z,22.47
2018-04-23T07:19:38.766Z,17.60
2018-04-23T07:22:04.738Z,17.70
2018-04-23T07:24:30.687Z,13.93
2018-04-23T07:26:57.370Z,20.37
2018-04-23T07:29:24.068Z,16.33
2018-04-23T07:31:50.243Z,19.03
2018-04-23T07:34:16.238Z,12.23
2018-04-23T07:36:42.278Z,13.90
2018-04-23T07:39:08.234Z,15.20
2018-04-23T07:41:34.928Z,18.33
2018-04-23T07:44:00.911Z,13.97
2018-04-23T07:46:26.882Z,21.20
2018-04-23T07:48:52.834Z,12.27
2018-04-23T07:51:18.813Z,24.43
2018-04-23T07:53:46.298Z,14.30
2018-04-23T07:56:13.031Z,20.93
2018-04-23T07:58:39.036Z,11.70
2018-04-23T08:01:05.004Z,19.23
2018-04-23T08:03:30.967Z,20.87
2018-04-23T08:05:56.973Z,23.03
2018-04-23T08:08:22.939Z,17.27
2018-04-23T08:10:48.911Z,18.35
2018-04-23T08:13:15.019Z,16.40
2018-04-23T08:15:41.007Z,17.25
2018-04-23T08:18:06.967Z,13.45
2018-04-23T08:20:33.716Z,13.75
2018-04-23T08:23:00.429Z,12.68
2018-04-23T08:25:26.380Z,12.73
2018-04-23T08:27:52.366Z,12.95
2018-04-23T08:30:18.363Z,13.90
2018-04-23T08:32:44.366Z,14.93
2018-04-23T08:35:10.372Z,10.73
2018-04-23T08:37:36.375Z,21.87
2018-04-23T08:40:02.290Z,13.80
2018-04-23T08:42:28.429Z,13.88
2018-04-23T08:44:54.378Z,14.95
2018-04-23T08:47:20.662Z,16.10
2018-04-23T08:49:47.266Z,12.13
2018-04-23T08:52:13.238Z,13.95
2018-04-23T08:54:39.205Z,16.77
2018-04-23T08:57:05.216Z,11.88
2018-04-23T08:59:31.187Z,15.38
2018-04-23T09:01:57.138Z,38.13
2018-04-23T09:04:23.291Z,18.27
2018-04-23T09:06:49.250Z,15.38
2018-04-23T09:09:15.986Z,13.88
2018-04-23T09:11:43.148Z,14.63
2018-04-23T09:14:09.841Z,9.50
2018-04-23T09:16:35.798Z,15.02
2018-04-23T09:19:01.794Z,12.23
2018-04-23T09:21:27.746Z,13.82
2018-04-23T09:23:53.702Z,12.73
2018-04-23T09:26:19.695Z,14.50
2018-04-23T09:28:45.886Z,15.07
2018-04-23T09:31:11.845Z,16.45
2018-04-23T09:33:37.836Z,18.85
2018-04-23T09:36:03.784Z,15.32
2018-04-23T09:38:29.742Z,13.73
2018-04-23T09:40:55.798Z,19.02
2018-04-23T09:43:22.505Z,10.50
2018-04-23T09:45:48.478Z,15.43
2018-04-23T09:48:14.507Z,15.63
2018-04-23T09:50:41.266Z,17.42
2018-04-23T09:53:07.990Z,17.40
2018-04-23T09:55:33.959Z,12.25
2018-04-23T09:58:00.657Z,15.15
2018-04-23T10:00:30.458Z,20.92
2018-04-23T10:02:56.471Z,18.25
2018-04-23T10:05:23.170Z,15.05
2018-04-23T10:07:49.130Z,13.65
2018-04-23T10:10:15.126Z,14.60
2018-04-23T10:12:41.134Z,15.98
2018-04-23T10:15:07.825Z,14.70
2018-04-23T10:17:33.806Z,16.85
2018-04-23T10:19:59.764Z,15.27
2018-04-23T10:22:26.463Z,15.65
2018-04-23T10:24:52.455Z,14.45
2018-04-23T10:27:19.150Z,13.55
2018-04-23T10:29:45.125Z,15.93
2018-04-23T10:32:11.130Z,13.95
2018-04-23T10:34:37.082Z,15.85
2018-04-23T10:37:03.037Z,13.65
2018-04-23T10:39:29.734Z,16.48
2018-04-23T10:41:55.694Z,15.75
2018-04-23T10:44:21.646Z,16.62
2018-04-23T10:46:47.674Z,16.37
2018-04-23T10:49:14.384Z,13.38
2018-04-23T10:51:40.347Z,18.70
2018-04-23T10:54:06.330Z,15.35
2018-04-23T10:56:33.042Z,16.45
2018-04-23T10:58:58.999Z,16.05
2018-04-23T11:01:25.106Z,16.87
2018-04-23T11:03:51.058Z,17.25
2018-04-23T11:06:17.778Z,13.68
2018-04-23T11:08:43.807Z,21.55
2018-04-23T11:11:09.754Z,16.25
2018-04-23T11:13:35.706Z,18.98
2018-04-23T11:16:01.701Z,11.77
2018-04-23T11:18:27.654Z,16.70
2018-04-23T11:20:53.613Z,18.87
2018-04-23T11:23:19.711Z,17.23
2018-04-23T11:25:45.699Z,13.80
2018-04-23T11:28:11.753Z,25.83
2018-04-23T11:30:38.502Z,15.07
2018-04-23T11:33:05.238Z,14.65
2018-04-23T11:35:31.197Z,14.77
2018-04-23T11:37:57.946Z,16.83
2018-04-23T11:40:24.646Z,16.98
2018-04-23T11:42:50.601Z,10.98
2018-04-23T11:45:16.684Z,17.35
2018-04-23T11:47:43.387Z,15.13
2018-04-23T11:50:09.342Z,14.13
2018-04-23T11:52:35.341Z,19.30
2018-04-23T11:55:01.291Z,14.32
2018-04-23T11:57:27.241Z,18.17
2018-04-23T11:59:53.958Z,14.23
2018-04-23T12:02:19.933Z,11.60
2018-04-23T12:04:47.412Z,14.02
2018-04-23T12:07:13.432Z,13.25
2018-04-23T12:09:39.390Z,14.77
2018-04-23T12:12:06.399Z,13.50
2018-04-23T12:14:32.395Z,13.32
2018-04-23T12:16:59.091Z,10.35
2018-04-23T12:19:25.043Z,9.93
2018-04-23T12:21:51.387Z,12.37
2018-04-23T12:24:17.382Z,12.18
2018-04-23T12:26:43.357Z,6.97
2018-04-23T12:29:09.350Z,15.82
2018-04-23T12:31:35.302Z,16.35
2018-04-23T12:34:01.287Z,12.55
2018-04-23T12:36:27.274Z,14.32
2018-04-23T12:38:53.217Z,11.60
2018-04-23T12:41:19.174Z,9.73
2018-04-23T12:43:45.208Z,10.55
2018-04-23T12:46:11.274Z,11.60
2018-04-23T12:48:37.171Z,13.50
2018-04-23T12:51:03.335Z,16.55
2018-04-23T12:53:29.274Z,11.60
2018-04-23T12:55:55.246Z,10.73
2018-04-23T12:58:21.431Z,14.15
2018-04-23T13:00:47.399Z,9.48
2018-04-23T13:03:14.115Z,12.25
2018-04-23T13:05:40.826Z,12.88
2018-04-23T13:08:06.786Z,15.23
2018-04-23T13:10:32.754Z,11.07
2018-04-23T13:12:59.055Z,15.63
2018-04-23T13:15:25.007Z,10.35
2018-04-23T13:17:50.972Z,4.00
2018-04-23T13:20:17.755Z,10.85
2018-04-23T13:22:43.750Z,9.20
2018-04-23T13:25:09.706Z,9.82
2018-04-23T13:27:36.459Z,8.18
2018-04-23T13:30:03.202Z,7.45
2018-04-23T13:32:29.154Z,7.85
2018-04-23T13:34:56.011Z,8.25
2018-04-23T13:37:22.709Z,7.78
2018-04-23T13:39:48.685Z,6.47
2018-04-23T13:42:14.692Z,16.77
2018-04-23T13:44:40.668Z,12.40
2018-04-23T13:47:07.367Z,12.88
2018-04-23T13:49:33.334Z,13.18
2018-04-23T13:52:00.042Z,6.22
2018-04-23T13:54:26.005Z,10.52
2018-04-23T13:56:52.011Z,11.07
2018-04-23T13:59:17.962Z,7.45
2018-04-23T14:01:43.949Z,6.68
2018-04-23T14:04:09.924Z,6.55
2018-04-23T14:06:35.870Z,8.40
2018-04-23T14:09:01.822Z,6.80
2018-04-23T14:11:27.789Z,15.75
2018-04-23T14:13:54.482Z,8.18
2018-04-23T14:16:20.436Z,9.13
2018-04-23T14:18:46.486Z,7.90
2018-04-23T14:21:12.461Z,15.88
2018-04-23T14:23:38.430Z,7.15
2018-04-23T14:26:04.409Z,7.15
2018-04-23T14:28:31.103Z,10.52
2018-04-23T14:30:57.058Z,8.02
2018-04-23T14:33:23.056Z,8.48
2018-04-23T14:35:49.018Z,9.02
2018-04-23T14:38:14.986Z,7.10
2018-04-23T14:40:41.022Z,9.52
2018-04-23T14:43:06.981Z,7.65
2018-04-23T14:45:33.679Z,9.77
2018-04-23T14:47:59.682Z,9.00
2018-04-23T14:50:25.707Z,3.72
2018-04-23T14:52:52.411Z,4.47
2018-04-23T14:55:18.585Z,9.07
2018-04-23T14:57:45.551Z,9.68
2018-04-23T15:00:11.780Z,7.25
2018-04-23T15:02:37.890Z,10.90
2018-04-23T15:05:03.871Z,6.55
2018-04-23T15:07:30.566Z,8.10
2018-04-23T15:09:56.570Z,7.15
2018-04-23T15:12:22.535Z,8.10
2018-04-23T15:14:48.485Z,8.13
2018-04-23T15:17:14.536Z,7.55
2018-04-23T15:19:40.509Z,7.18
2018-04-23T15:22:06.506Z,7.43
2018-04-23T15:24:32.537Z,8.32
2018-04-23T15:26:58.526Z,11.68
2018-04-23T15:29:24.487Z,8.88
2018-04-23T15:31:50.483Z,10.50
2018-04-23T15:34:16.645Z,11.85
2018-04-23T15:36:42.652Z,6.75
2018-04-23T15:39:09.366Z,8.45
2018-04-23T15:41:35.351Z,6.40
2018-04-23T15:44:01.319Z,7.12
2018-04-23T15:46:27.290Z,9.70
2018-04-23T15:48:53.243Z,11.85
2018-04-23T15:51:19.935Z,5.93
2018-04-23T15:53:45.936Z,11.75
2018-04-23T15:56:12.002Z,11.23
2018-04-23T15:58:37.950Z,7.50
2018-04-23T16:01:03.965Z,7.78
2018-04-23T16:03:29.935Z,5.93
2018-04-23T16:05:55.887Z,7.95
2018-04-23T16:08:23.379Z,10.50
2018-04-23T16:10:50.074Z,6.65
2018-04-23T16:13:16.057Z,7.55
2018-04-23T16:15:42.062Z,8.57
2018-04-23T16:18:08.016Z,7.27
2018-04-23T16:20:33.965Z,9.40
2018-04-23T16:23:00.799Z,5.82
2018-04-23T16:25:26.758Z,9.03
2018-04-23T16:27:53.454Z,5.37
2018-04-23T16:30:19.534Z,6.18
2018-04-23T16:32:46.485Z,7.30
2018-04-23T16:35:12.457Z,8.00
2018-04-23T16:37:38.443Z,6.03
2018-04-23T16:40:04.406Z,6.32
2018-04-23T16:42:31.102Z,6.32
2018-04-23T16:44:57.112Z,7.50
2018-04-23T16:47:23.025Z,5.90
2018-04-23T16:49:49.738Z,4.72
2018-04-23T16:52:15.800Z,7.90
2018-04-23T16:54:41.880Z,6.50
2018-04-23T16:57:07.790Z,3.43
2018-04-23T16:59:34.574Z,4.85
2018-04-23T17:02:00.524Z,8.50
2018-04-23T17:04:26.488Z,7.18
2018-04-23T17:06:52.721Z,6.07
2018-04-23T17:09:18.673Z,7.20
2018-04-23T17:11:44.724Z,5.65
2018-04-23T17:14:10.762Z,4.13
2018-04-23T17:16:37.475Z,5.90
2018-04-23T17:19:03.434Z,6.00
2018-04-23T17:21:29.456Z,7.40
2018-04-23T17:23:56.106Z,7.27
2018-04-23T17:26:22.053Z,3.27
2018-04-23T17:28:48.269Z,4.77
2018-04-23T17:31:14.235Z,4.23
2018-04-23T17:33:40.185Z,9.00
2018-04-23T17:36:06.198Z,4.63
2018-04-23T17:38:32.149Z,7.60
2018-04-23T17:41:05.173Z,5.57
2018-04-23T17:43:31.162Z,4.43
2018-04-23T17:45:57.123Z,6.90
2018-04-23T17:48:23.831Z,9.67
2018-04-23T17:50:49.943Z,3.40
2018-04-23T17:53:15.911Z,6.47
2018-04-23T17:55:41.915Z,8.20
2018-04-23T17:58:07.911Z,8.50
2018-04-23T18:00:33.876Z,5.47
2018-04-23T18:02:59.844Z,8.77
2018-04-23T18:05:25.839Z,7.33
2018-04-23T18:07:52.535Z,8.33
2018-04-23T18:10:18.512Z,3.07
2018-04-23T18:12:44.509Z,5.97
2018-04-23T18:15:10.468Z,5.73
2018-04-23T18:17:36.469Z,6.30
2018-04-23T18:20:02.414Z,9.33
2018-04-23T18:22:28.377Z,7.50
2018-04-23T18:24:54.347Z,7.63
2018-04-23T18:27:28.183Z,4.33
2018-04-23T18:29:54.141Z,3.07
2018-04-23T18:32:20.103Z,4.70
2018-04-23T18:34:46.128Z,8.80
2018-04-23T18:37:12.100Z,7.97
2018-04-23T18:39:38.797Z,7.73
2018-04-23T18:42:04.775Z,5.93
2018-04-23T18:44:30.721Z,8.70
2018-04-23T18:46:57.418Z,4.57
2018-04-23T18:49:23.390Z,5.40
2018-04-23T18:51:49.354Z,4.70
2018-04-23T18:54:16.074Z,7.27
2018-04-23T18:56:42.085Z,6.63
2018-04-23T18:59:08.061Z,6.47
2018-04-23T19:01:34.750Z,9.43
2018-04-23T19:04:00.736Z,7.03
2018-04-23T19:06:26.710Z,4.30
2018-04-23T19:08:52.719Z,9.27
2018-04-23T19:11:18.630Z,5.87
2018-04-23T19:13:44.606Z,6.30
2018-04-23T19:16:11.338Z,4.80
2018-04-23T19:18:38.078Z,4.00
2018-04-23T19:21:05.541Z,11.57
2018-04-23T19:23:31.490Z,4.80
2018-04-23T19:25:57.458Z,4.20
2018-04-23T19:28:23.517Z,4.80
2018-04-23T19:30:49.619Z,8.27
2018-04-23T19:33:16.394Z,4.73
2018-04-23T19:35:42.406Z,4.50
2018-04-23T19:38:09.109Z,7.97
2018-04-23T19:40:35.065Z,7.40
2018-04-23T19:43:01.019Z,5.20
2018-04-23T19:45:26.974Z,5.57
2018-04-23T19:47:53.815Z,5.83
2018-04-23T19:50:19.778Z,6.50
2018-04-23T19:52:45.752Z,7.47
2018-04-23T19:55:11.745Z,7.60
2018-04-23T19:57:37.704Z,6.53
2018-04-23T20:00:03.659Z,4.97
2018-04-23T20:02:29.656Z,4.63
2018-04-23T20:04:55.632Z,5.57
2018-04-23T20:07:21.661Z,7.23
2018-04-23T20:09:47.713Z,6.87
2018-04-23T20:12:14.378Z,7.40
2018-04-23T20:14:40.503Z,8.43
2018-04-23T20:17:06.518Z,6.17
2018-04-23T20:19:32.476Z,7.00
2018-04-23T20:21:58.459Z,4.77
2018-04-23T20:24:24.650Z,11.83
2018-04-23T20:26:50.613Z,5.20
2018-04-23T20:29:16.570Z,7.63
2018-04-23T20:31:42.593Z,6.57
2018-04-23T20:34:08.549Z,5.90
2018-04-23T20:36:34.493Z,8.30
2018-04-23T20:39:00.491Z,9.20
2018-04-23T20:41:27.199Z,7.90
2018-04-23T20:43:53.314Z,6.83
2018-04-23T20:46:19.295Z,7.30
2018-04-23T20:48:45.273Z,11.00
2018-04-23T20:51:11.255Z,5.53
2018-04-23T20:53:37.483Z,5.33
2018-04-23T20:56:03.442Z,8.57
2018-04-23T20:58:29.402Z,9.03
2018-04-23T21:00:56.119Z,4.30
2018-04-23T21:03:22.077Z,8.10
2018-04-23T21:05:48.030Z,5.87
2018-04-23T21:08:14.803Z,8.87
2018-04-23T21:10:40.764Z,6.50
2018-04-23T21:13:06.719Z,4.60
2018-04-23T21:15:32.707Z,10.03
2018-04-23T21:17:58.653Z,4.03
2018-04-23T21:20:24.606Z,5.93
2018-04-23T21:22:50.597Z,4.43
2018-04-23T21:25:16.894Z,8.03
2018-04-23T21:27:42.956Z,6.03
2018-04-23T21:30:09.667Z,5.43
2018-04-23T21:32:35.624Z,11.67
2018-04-23T21:35:01.592Z,5.47
2018-04-23T21:37:28.303Z,5.50
2018-04-23T21:39:54.255Z,9.63
2018-04-23T21:42:20.197Z,5.77
2018-04-23T21:44:46.205Z,7.87
2018-04-23T21:47:12.176Z,6.53
2018-04-23T21:49:38.888Z,7.23
2018-04-23T21:52:04.882Z,5.63
2018-04-23T21:54:30.834Z,6.57
2018-04-23T21:56:56.785Z,5.33
2018-04-23T21:59:22.759Z,4.83
2018-04-23T22:01:48.722Z,7.67
2018-04-23T22:04:15.436Z,6.37
2018-04-23T22:06:41.455Z,7.50
2018-04-23T22:09:07.423Z,7.70
2018-04-23T22:11:34.119Z,5.13
2018-04-23T22:14:00.241Z,4.17
2018-04-23T22:16:26.191Z,7.73
2018-04-23T22:18:52.149Z,5.20
2018-04-23T22:21:18.386Z,4.47
2018-04-23T22:23:44.392Z,7.03
2018-04-23T22:26:10.342Z,4.23
2018-04-23T22:28:36.633Z,4.53
2018-04-23T22:31:02.579Z,4.60
2018-04-23T22:33:29.302Z,5.97
2018-04-23T22:35:55.298Z,6.87
2018-04-23T22:38:21.257Z,8.67
2018-04-23T22:40:47.213Z,3.20
2018-04-23T22:43:13.251Z,5.90
2018-04-23T22:45:39.206Z,4.27
2018-04-23T22:48:05.897Z,7.37
2018-04-23T22:50:31.928Z,6.87
2018-04-23T22:52:57.838Z,8.47
2018-04-23T22:55:24.537Z,5.50
2018-04-23T22:57:50.509Z,5.03
2018-04-23T23:00:16.506Z,3.80
2018-04-23T23:02:42.489Z,6.60
2018-04-23T23:05:09.198Z,4.23
2018-04-23T23:07:35.159Z,4.17
2018-04-23T23:10:01.115Z,5.83
2018-04-23T23:12:27.813Z,4.87
2018-04-23T23:14:53.765Z,10.50
2018-04-23T23:17:19.717Z,4.90
2018-04-23T23:19:45.730Z,4.73
2018-04-23T23:22:12.670Z,9.67
2018-04-23T23:24:38.610Z,5.37
2018-04-23T23:27:04.585Z,4.07
2018-04-23T23:29:31.278Z,5.30
2018-04-23T23:31:57.221Z,3.23
2018-04-23T23:34:23.224Z,4.03
2018-04-23T23:36:49.923Z,3.90
2018-04-23T23:39:15.884Z,7.40
2018-04-23T23:41:42.172Z,7.43
2018-04-23T23:44:08.838Z,5.10
2018-04-23T23:46:34.803Z,9.97
2018-04-23T23:49:00.938Z,7.90
2018-04-23T23:51:26.917Z,4.00
2018-04-23T23:53:52.937Z,8.13
2018-04-23T23:56:18.926Z,10.93
2018-04-23T23:58:44.904Z,4.47
